sensor_id;sensor_type;location;lat;lon;timestamp;temperature;humidity
13049;DHT22;6591;51.446;5.404;2023-05-27T00:02:09;12.10;89.80
13049;DHT22;6591;51.446;5.404;2023-05-27T00:04:37;13.00;90.30
13049;DHT22;6591;51.446;5.404;2023-05-27T00:07:07;12.20;90.20
13049;DHT22;6591;51.446;5.404;2023-05-27T00:09:34;13.80;91.00
13049;DHT22;6591;51.446;5.404;2023-05-27T00:12:02;11.90;90.50
13049;DHT22;6591;51.446;5.404;2023-05-27T00:14:29;11.90;90.40
13049;DHT22;6591;51.446;5.404;2023-05-27T00:16:56;11.90;90.50
13049;DHT22;6591;51.446;5.404;2023-05-27T00:19:23;12.10;90.70
13049;DHT22;6591;51.446;5.404;2023-05-27T00:21:51;12.60;90.90
13049;DHT22;6591;51.446;5.404;2023-05-27T00:24:19;13.00;91.30
13049;DHT22;6591;51.446;5.404;2023-05-27T00:26:48;12.30;91.80
13049;DHT22;6591;51.446;5.404;2023-05-27T00:29:16;11.60;91.50
13049;DHT22;6591;51.446;5.404;2023-05-27T00:31:44;10.70;91.30
13049;DHT22;6591;51.446;5.404;2023-05-27T00:34:11;11.50;92.10
13049;DHT22;6591;51.446;5.404;2023-05-27T00:36:39;11.50;91.90
13049;DHT22;6591;51.446;5.404;2023-05-27T00:39:06;12.60;92.30
13049;DHT22;6591;51.446;5.404;2023-05-27T00:41:33;11.40;91.80
13049;DHT22;6591;51.446;5.404;2023-05-27T00:44:01;10.90;91.70
13049;DHT22;6591;51.446;5.404;2023-05-27T00:46:29;11.40;92.40
13049;DHT22;6591;51.446;5.404;2023-05-27T00:48:56;11.40;92.20
13049;DHT22;6591;51.446;5.404;2023-05-27T00:51:23;11.50;92.00
13049;DHT22;6591;51.446;5.404;2023-05-27T00:53:50;11.20;91.90
13049;DHT22;6591;51.446;5.404;2023-05-27T00:56:18;12.40;92.50
13049;DHT22;6591;51.446;5.404;2023-05-27T00:58:45;11.90;92.40
13049;DHT22;6591;51.446;5.404;2023-05-27T01:01:13;12.10;92.60
13049;DHT22;6591;51.446;5.404;2023-05-27T01:03:41;11.20;92.70
13049;DHT22;6591;51.446;5.404;2023-05-27T01:09:17;11.00;93.10
13049;DHT22;6591;51.446;5.404;2023-05-27T01:14:37;10.90;92.90
13049;DHT22;6591;51.446;5.404;2023-05-27T01:17:06;10.90;93.30
13049;DHT22;6591;51.446;5.404;2023-05-27T01:19:36;12.30;93.40
13049;DHT22;6591;51.446;5.404;2023-05-27T01:22:07;10.80;92.90
13049;DHT22;6591;51.446;5.404;2023-05-27T01:24:37;10.90;93.30
13049;DHT22;6591;51.446;5.404;2023-05-27T01:27:04;11.40;93.60
13049;DHT22;6591;51.446;5.404;2023-05-27T01:29:31;10.70;93.30
13049;DHT22;6591;51.446;5.404;2023-05-27T01:32:08;10.70;93.40
13049;DHT22;6591;51.446;5.404;2023-05-27T01:34:59;10.70;93.90
13049;DHT22;6591;51.446;5.404;2023-05-27T01:37:33;10.40;94.50
13049;DHT22;6591;51.446;5.404;2023-05-27T01:40:03;10.60;94.10
13049;DHT22;6591;51.446;5.404;2023-05-27T01:42:35;10.60;94.00
13049;DHT22;6591;51.446;5.404;2023-05-27T01:45:05;10.50;94.20
13049;DHT22;6591;51.446;5.404;2023-05-27T01:47:35;10.50;94.30
13049;DHT22;6591;51.446;5.404;2023-05-27T01:50:03;10.50;94.30
13049;DHT22;6591;51.446;5.404;2023-05-27T01:52:31;10.40;94.70
13049;DHT22;6591;51.446;5.404;2023-05-27T01:55:00;10.40;94.90
13049;DHT22;6591;51.446;5.404;2023-05-27T01:57:29;10.40;94.80
13049;DHT22;6591;51.446;5.404;2023-05-27T01:59:56;10.30;95.00
13049;DHT22;6591;51.446;5.404;2023-05-27T02:02:23;10.30;94.80
13049;DHT22;6591;51.446;5.404;2023-05-27T02:04:51;10.30;94.90
13049;DHT22;6591;51.446;5.404;2023-05-27T02:07:18;11.50;95.50
13049;DHT22;6591;51.446;5.404;2023-05-27T02:09:48;10.20;95.40
13049;DHT22;6591;51.446;5.404;2023-05-27T02:12:15;11.10;95.70
13049;DHT22;6591;51.446;5.404;2023-05-27T02:14:42;10.20;95.30
13049;DHT22;6591;51.446;5.404;2023-05-27T02:17:10;12.10;96.10
13049;DHT22;6591;51.446;5.404;2023-05-27T02:19:38;10.10;95.40
13049;DHT22;6591;51.446;5.404;2023-05-27T02:22:09;10.10;95.80
13049;DHT22;6591;51.446;5.404;2023-05-27T02:24:36;10.00;95.60
13049;DHT22;6591;51.446;5.404;2023-05-27T02:27:03;10.00;95.90
13049;DHT22;6591;51.446;5.404;2023-05-27T02:29:32;9.90;95.70
13049;DHT22;6591;51.446;5.404;2023-05-27T02:31:59;10.00;96.00
13049;DHT22;6591;51.446;5.404;2023-05-27T02:34:26;9.90;96.30
13049;DHT22;6591;51.446;5.404;2023-05-27T02:36:53;9.90;96.50
13049;DHT22;6591;51.446;5.404;2023-05-27T02:39:21;10.70;96.80
13049;DHT22;6591;51.446;5.404;2023-05-27T02:41:48;9.80;96.60
13049;DHT22;6591;51.446;5.404;2023-05-27T02:44:15;11.00;97.00
13049;DHT22;6591;51.446;5.404;2023-05-27T02:46:42;9.80;96.90
13049;DHT22;6591;51.446;5.404;2023-05-27T02:49:09;11.70;97.50
13049;DHT22;6591;51.446;5.404;2023-05-27T02:51:36;9.70;96.90
13049;DHT22;6591;51.446;5.404;2023-05-27T02:54:03;9.70;96.90
13049;DHT22;6591;51.446;5.404;2023-05-27T02:56:30;9.70;96.90
13049;DHT22;6591;51.446;5.404;2023-05-27T02:58:57;9.60;97.00
13049;DHT22;6591;51.446;5.404;2023-05-27T03:01:24;9.60;96.80
13049;DHT22;6591;51.446;5.404;2023-05-27T03:03:52;9.60;97.10
13049;DHT22;6591;51.446;5.404;2023-05-27T03:06:19;9.50;97.40
13049;DHT22;6591;51.446;5.404;2023-05-27T03:08:46;9.50;97.50
13049;DHT22;6591;51.446;5.404;2023-05-27T03:11:14;9.50;98.00
13049;DHT22;6591;51.446;5.404;2023-05-27T03:13:41;11.30;98.50
13049;DHT22;6591;51.446;5.404;2023-05-27T03:16:08;9.50;97.70
13049;DHT22;6591;51.446;5.404;2023-05-27T03:18:35;9.40;97.90
13049;DHT22;6591;51.446;5.404;2023-05-27T03:21:03;9.50;98.10
13049;DHT22;6591;51.446;5.404;2023-05-27T03:23:30;11.60;98.70
13049;DHT22;6591;51.446;5.404;2023-05-27T03:25:57;9.50;98.20
13049;DHT22;6591;51.446;5.404;2023-05-27T03:28:24;9.40;98.50
13049;DHT22;6591;51.446;5.404;2023-05-27T03:30:51;9.40;98.70
13049;DHT22;6591;51.446;5.404;2023-05-27T03:33:46;11.20;99.20
13049;DHT22;6591;51.446;5.404;2023-05-27T03:36:13;9.60;99.00
13049;DHT22;6591;51.446;5.404;2023-05-27T03:38:40;9.30;99.30
13049;DHT22;6591;51.446;5.404;2023-05-27T03:41:07;9.80;99.30
13049;DHT22;6591;51.446;5.404;2023-05-27T03:43:37;9.30;99.20
13049;DHT22;6591;51.446;5.404;2023-05-27T03:46:04;9.30;99.00
13049;DHT22;6591;51.446;5.404;2023-05-27T03:48:31;9.30;99.30
13049;DHT22;6591;51.446;5.404;2023-05-27T03:50:58;9.30;99.10
13049;DHT22;6591;51.446;5.404;2023-05-27T03:53:25;9.30;99.30
13049;DHT22;6591;51.446;5.404;2023-05-27T03:55:52;9.30;99.30
13049;DHT22;6591;51.446;5.404;2023-05-27T03:58:19;9.30;99.60
13049;DHT22;6591;51.446;5.404;2023-05-27T04:00:46;11.20;99.90
13049;DHT22;6591;51.446;5.404;2023-05-27T04:03:15;9.30;99.90
13049;DHT22;6591;51.446;5.404;2023-05-27T04:05:42;9.30;99.90
13049;DHT22;6591;51.446;5.404;2023-05-27T04:08:09;9.30;99.90
13049;DHT22;6591;51.446;5.404;2023-05-27T04:10:36;9.30;99.90
13049;DHT22;6591;51.446;5.404;2023-05-27T04:13:03;9.30;99.90
13049;DHT22;6591;51.446;5.404;2023-05-27T04:15:30;9.30;99.90
13049;DHT22;6591;51.446;5.404;2023-05-27T04:17:58;9.30;99.90
13049;DHT22;6591;51.446;5.404;2023-05-27T04:20:36;11.60;99.90
13049;DHT22;6591;51.446;5.404;2023-05-27T04:23:11;9.40;99.90
13049;DHT22;6591;51.446;5.404;2023-05-27T04:25:38;9.40;99.90
13049;DHT22;6591;51.446;5.404;2023-05-27T04:28:08;9.40;99.90
13049;DHT22;6591;51.446;5.404;2023-05-27T04:30:39;10.90;99.90
13049;DHT22;6591;51.446;5.404;2023-05-27T04:33:30;9.40;99.90
13049;DHT22;6591;51.446;5.404;2023-05-27T04:35:58;9.60;99.90
13049;DHT22;6591;51.446;5.404;2023-05-27T04:38:28;10.80;99.90
13049;DHT22;6591;51.446;5.404;2023-05-27T04:41:02;10.50;99.90
13049;DHT22;6591;51.446;5.404;2023-05-27T04:44:02;9.50;99.90
13049;DHT22;6591;51.446;5.404;2023-05-27T04:46:34;10.30;99.90
13049;DHT22;6591;51.446;5.404;2023-05-27T04:49:01;11.50;99.90
13049;DHT22;6591;51.446;5.404;2023-05-27T04:51:28;9.70;99.90
13049;DHT22;6591;51.446;5.404;2023-05-27T04:53:55;10.80;99.90
13049;DHT22;6591;51.446;5.404;2023-05-27T04:56:23;11.80;99.90
13049;DHT22;6591;51.446;5.404;2023-05-27T04:58:51;10.60;99.90
13049;DHT22;6591;51.446;5.404;2023-05-27T05:01:22;9.90;99.90
13049;DHT22;6591;51.446;5.404;2023-05-27T05:04:08;9.90;99.90
13049;DHT22;6591;51.446;5.404;2023-05-27T05:07:01;10.50;99.90
13049;DHT22;6591;51.446;5.404;2023-05-27T05:09:29;10.00;99.90
13049;DHT22;6591;51.446;5.404;2023-05-27T05:12:01;10.50;99.90
13049;DHT22;6591;51.446;5.404;2023-05-27T05:14:35;10.10;99.90
13049;DHT22;6591;51.446;5.404;2023-05-27T05:17:02;10.20;99.90
13049;DHT22;6591;51.446;5.404;2023-05-27T05:19:29;10.30;99.90
13049;DHT22;6591;51.446;5.404;2023-05-27T05:21:56;10.30;99.90
13049;DHT22;6591;51.446;5.404;2023-05-27T05:24:26;11.90;99.90
13049;DHT22;6591;51.446;5.404;2023-05-27T05:26:53;12.30;99.90
13049;DHT22;6591;51.446;5.404;2023-05-27T05:29:21;10.60;99.90
13049;DHT22;6591;51.446;5.404;2023-05-27T05:31:51;10.70;99.90
13049;DHT22;6591;51.446;5.404;2023-05-27T05:34:20;10.80;99.90
13049;DHT22;6591;51.446;5.404;2023-05-27T05:36:48;10.90;99.90
13049;DHT22;6591;51.446;5.404;2023-05-27T05:39:15;11.00;99.90
13049;DHT22;6591;51.446;5.404;2023-05-27T05:41:47;11.10;99.90
13049;DHT22;6591;51.446;5.404;2023-05-27T05:44:17;11.20;99.90
13049;DHT22;6591;51.446;5.404;2023-05-27T05:46:44;11.40;99.90
13049;DHT22;6591;51.446;5.404;2023-05-27T05:49:11;11.50;99.90
13049;DHT22;6591;51.446;5.404;2023-05-27T05:51:42;11.80;99.90
13049;DHT22;6591;51.446;5.404;2023-05-27T05:54:09;11.70;99.90
13049;DHT22;6591;51.446;5.404;2023-05-27T05:56:42;13.30;99.90
13049;DHT22;6591;51.446;5.404;2023-05-27T05:59:10;12.10;99.90
13049;DHT22;6591;51.446;5.404;2023-05-27T06:01:37;13.00;99.90
13049;DHT22;6591;51.446;5.404;2023-05-27T06:04:04;12.50;99.80
13049;DHT22;6591;51.446;5.404;2023-05-27T06:06:36;12.40;99.60
13049;DHT22;6591;51.446;5.404;2023-05-27T06:09:22;12.50;99.40
13049;DHT22;6591;51.446;5.404;2023-05-27T06:11:52;12.70;99.30
13049;DHT22;6591;51.446;5.404;2023-05-27T06:14:20;12.80;99.10
13049;DHT22;6591;51.446;5.404;2023-05-27T06:16:52;14.60;99.40
13049;DHT22;6591;51.446;5.404;2023-05-27T06:19:19;14.40;99.20
13049;DHT22;6591;51.446;5.404;2023-05-27T06:21:47;14.40;99.00
13049;DHT22;6591;51.446;5.404;2023-05-27T06:24:45;13.30;98.40
13049;DHT22;6591;51.446;5.404;2023-05-27T06:27:23;13.40;98.30
13049;DHT22;6591;51.446;5.404;2023-05-27T06:29:50;13.60;98.10
13049;DHT22;6591;51.446;5.404;2023-05-27T06:32:29;13.70;98.10
13049;DHT22;6591;51.446;5.404;2023-05-27T06:34:57;13.90;97.90
13049;DHT22;6591;51.446;5.404;2023-05-27T06:37:24;14.10;97.90
13049;DHT22;6591;51.446;5.404;2023-05-27T06:39:51;14.40;97.60
13049;DHT22;6591;51.446;5.404;2023-05-27T06:42:18;14.50;97.70
13049;DHT22;6591;51.446;5.404;2023-05-27T06:45:09;14.60;97.00
13049;DHT22;6591;51.446;5.404;2023-05-27T06:47:36;14.80;96.80
13049;DHT22;6591;51.446;5.404;2023-05-27T06:50:05;15.10;96.70
13049;DHT22;6591;51.446;5.404;2023-05-27T06:52:32;15.10;96.40
13049;DHT22;6591;51.446;5.404;2023-05-27T06:55:11;15.30;96.20
13049;DHT22;6591;51.446;5.404;2023-05-27T06:57:57;15.40;95.90
13049;DHT22;6591;51.446;5.404;2023-05-27T07:00:47;16.20;95.90
13049;DHT22;6591;51.446;5.404;2023-05-27T07:03:41;16.80;95.90
13049;DHT22;6591;51.446;5.404;2023-05-27T07:06:12;16.00;95.20
13049;DHT22;6591;51.446;5.404;2023-05-27T07:08:46;16.90;95.50
13049;DHT22;6591;51.446;5.404;2023-05-27T07:11:19;16.40;94.90
13049;DHT22;6591;51.446;5.404;2023-05-27T07:13:48;16.60;94.50
13049;DHT22;6591;51.446;5.404;2023-05-27T07:16:19;16.80;94.10
13049;DHT22;6591;51.446;5.404;2023-05-27T07:18:46;18.10;94.50
13049;DHT22;6591;51.446;5.404;2023-05-27T07:21:14;16.90;93.40
13049;DHT22;6591;51.446;5.404;2023-05-27T07:23:41;17.00;93.40
13049;DHT22;6591;51.446;5.404;2023-05-27T07:26:23;17.10;93.10
13049;DHT22;6591;51.446;5.404;2023-05-27T07:28:50;17.30;93.10
13049;DHT22;6591;51.446;5.404;2023-05-27T07:31:30;17.90;93.10
13049;DHT22;6591;51.446;5.404;2023-05-27T07:34:03;18.00;93.20
13049;DHT22;6591;51.446;5.404;2023-05-27T07:36:30;17.80;93.10
13049;DHT22;6591;51.446;5.404;2023-05-27T07:38:57;19.30;93.00
13049;DHT22;6591;51.446;5.404;2023-05-27T07:41:24;17.80;92.30
13049;DHT22;6591;51.446;5.404;2023-05-27T07:43:53;18.40;92.20
13049;DHT22;6591;51.446;5.404;2023-05-27T07:46:21;18.10;92.10
13049;DHT22;6591;51.446;5.404;2023-05-27T07:48:48;18.30;92.20
13049;DHT22;6591;51.446;5.404;2023-05-27T07:51:15;18.50;91.80
13049;DHT22;6591;51.446;5.404;2023-05-27T07:53:42;18.70;91.70
13049;DHT22;6591;51.446;5.404;2023-05-27T07:56:12;19.00;91.50
13049;DHT22;6591;51.446;5.404;2023-05-27T07:58:39;19.20;91.10
13049;DHT22;6591;51.446;5.404;2023-05-27T08:01:09;19.00;90.60
13049;DHT22;6591;51.446;5.404;2023-05-27T08:03:39;19.70;90.10
13049;DHT22;6591;51.446;5.404;2023-05-27T08:06:19;19.60;90.00
13049;DHT22;6591;51.446;5.404;2023-05-27T08:09:06;19.70;89.70
13049;DHT22;6591;51.446;5.404;2023-05-27T08:11:41;19.80;88.80
13049;DHT22;6591;51.446;5.404;2023-05-27T08:14:34;19.90;88.10
13049;DHT22;6591;51.446;5.404;2023-05-27T08:17:07;20.00;86.90
13049;DHT22;6591;51.446;5.404;2023-05-27T08:19:57;20.10;87.10
13049;DHT22;6591;51.446;5.404;2023-05-27T08:22:53;20.20;86.20
13049;DHT22;6591;51.446;5.404;2023-05-27T08:25:49;20.20;85.50
13049;DHT22;6591;51.446;5.404;2023-05-27T08:28:31;20.30;85.40
13049;DHT22;6591;51.446;5.404;2023-05-27T08:31:28;20.30;85.30
13049;DHT22;6591;51.446;5.404;2023-05-27T08:33:59;20.40;86.00
13049;DHT22;6591;51.446;5.404;2023-05-27T08:36:26;20.50;85.50
13049;DHT22;6591;51.446;5.404;2023-05-27T08:38:55;20.70;85.00
13049;DHT22;6591;51.446;5.404;2023-05-27T08:41:27;20.80;84.70
13049;DHT22;6591;51.446;5.404;2023-05-27T08:43:56;20.90;84.70
13049;DHT22;6591;51.446;5.404;2023-05-27T08:46:45;21.10;83.00
13049;DHT22;6591;51.446;5.404;2023-05-27T08:49:14;21.30;82.60
13049;DHT22;6591;51.446;5.404;2023-05-27T08:51:44;21.30;82.50
13049;DHT22;6591;51.446;5.404;2023-05-27T08:54:12;21.40;82.80
13049;DHT22;6591;51.446;5.404;2023-05-27T08:56:40;21.50;82.60
13049;DHT22;6591;51.446;5.404;2023-05-27T08:59:11;21.80;83.10
13049;DHT22;6591;51.446;5.404;2023-05-27T09:01:39;22.00;81.50
13049;DHT22;6591;51.446;5.404;2023-05-27T09:04:09;22.30;80.60
13049;DHT22;6591;51.446;5.404;2023-05-27T09:06:40;22.60;80.50
13049;DHT22;6591;51.446;5.404;2023-05-27T09:09:07;22.70;79.80
13049;DHT22;6591;51.446;5.404;2023-05-27T09:11:41;22.90;79.80
13049;DHT22;6591;51.446;5.404;2023-05-27T09:14:20;23.10;78.90
13049;DHT22;6591;51.446;5.404;2023-05-27T09:16:48;23.40;77.80
13049;DHT22;6591;51.446;5.404;2023-05-27T09:19:19;23.60;78.60
13049;DHT22;6591;51.446;5.404;2023-05-27T09:21:50;23.90;77.40
13049;DHT22;6591;51.446;5.404;2023-05-27T09:24:22;24.20;77.70
13049;DHT22;6591;51.446;5.404;2023-05-27T09:26:53;24.50;77.30
13049;DHT22;6591;51.446;5.404;2023-05-27T09:29:25;24.90;75.50
13049;DHT22;6591;51.446;5.404;2023-05-27T09:31:56;25.20;74.30
13049;DHT22;6591;51.446;5.404;2023-05-27T09:34:23;25.50;73.30
13049;DHT22;6591;51.446;5.404;2023-05-27T09:36:51;25.80;72.90
13049;DHT22;6591;51.446;5.404;2023-05-27T09:39:21;26.00;72.00
13049;DHT22;6591;51.446;5.404;2023-05-27T09:41:56;26.30;72.00
13049;DHT22;6591;51.446;5.404;2023-05-27T09:44:29;26.60;70.20
13049;DHT22;6591;51.446;5.404;2023-05-27T09:46:57;26.80;68.10
13049;DHT22;6591;51.446;5.404;2023-05-27T09:49:26;27.00;68.10
13049;DHT22;6591;51.446;5.404;2023-05-27T09:51:56;27.10;68.00
13049;DHT22;6591;51.446;5.404;2023-05-27T09:54:24;27.10;66.30
13049;DHT22;6591;51.446;5.404;2023-05-27T09:56:52;27.30;65.30
13049;DHT22;6591;51.446;5.404;2023-05-27T09:59:19;27.40;65.50
13049;DHT22;6591;51.446;5.404;2023-05-27T10:01:47;27.50;65.30
13049;DHT22;6591;51.446;5.404;2023-05-27T10:04:16;27.70;65.50
13049;DHT22;6591;51.446;5.404;2023-05-27T10:06:46;28.00;64.70
13049;DHT22;6591;51.446;5.404;2023-05-27T10:09:15;28.20;62.70
13049;DHT22;6591;51.446;5.404;2023-05-27T10:11:43;28.30;61.10
13049;DHT22;6591;51.446;5.404;2023-05-27T10:14:12;28.40;61.30
13049;DHT22;6591;51.446;5.404;2023-05-27T10:16:39;28.40;61.20
13049;DHT22;6591;51.446;5.404;2023-05-27T10:19:18;26.60;59.70
13049;DHT22;6591;51.446;5.404;2023-05-27T10:21:45;28.70;60.20
13049;DHT22;6591;51.446;5.404;2023-05-27T10:24:12;28.80;59.00
13049;DHT22;6591;51.446;5.404;2023-05-27T10:26:44;28.90;59.30
13049;DHT22;6591;51.446;5.404;2023-05-27T10:29:14;29.00;58.60
13049;DHT22;6591;51.446;5.404;2023-05-27T10:31:47;29.10;57.10
13049;DHT22;6591;51.446;5.404;2023-05-27T10:34:18;29.30;57.80
13049;DHT22;6591;51.446;5.404;2023-05-27T10:36:46;29.40;57.70
13049;DHT22;6591;51.446;5.404;2023-05-27T10:39:24;29.60;57.60
13049;DHT22;6591;51.446;5.404;2023-05-27T10:41:56;29.90;57.40
13049;DHT22;6591;51.446;5.404;2023-05-27T10:44:32;30.20;56.70
13049;DHT22;6591;51.446;5.404;2023-05-27T10:47:27;30.50;55.20
13049;DHT22;6591;51.446;5.404;2023-05-27T10:49:57;30.60;50.30
13049;DHT22;6591;51.446;5.404;2023-05-27T10:52:25;30.50;52.00
13049;DHT22;6591;51.446;5.404;2023-05-27T10:54:59;30.40;52.40
13049;DHT22;6591;51.446;5.404;2023-05-27T10:57:30;30.30;52.50
13049;DHT22;6591;51.446;5.404;2023-05-27T11:00:02;30.20;51.90
13049;DHT22;6591;51.446;5.404;2023-05-27T11:02:31;30.20;51.40
13049;DHT22;6591;51.446;5.404;2023-05-27T11:04:59;30.20;52.10
13049;DHT22;6591;51.446;5.404;2023-05-27T11:07:26;30.10;51.40
13049;DHT22;6591;51.446;5.404;2023-05-27T11:09:54;30.10;50.70
13049;DHT22;6591;51.446;5.404;2023-05-27T11:12:23;29.90;51.10
13049;DHT22;6591;51.446;5.404;2023-05-27T11:14:55;29.80;51.40
13049;DHT22;6591;51.446;5.404;2023-05-27T11:17:23;29.90;51.40
13049;DHT22;6591;51.446;5.404;2023-05-27T11:19:52;30.00;51.10
13049;DHT22;6591;51.446;5.404;2023-05-27T11:22:20;30.10;49.50
13049;DHT22;6591;51.446;5.404;2023-05-27T11:24:57;30.10;50.30
13049;DHT22;6591;51.446;5.404;2023-05-27T11:27:36;30.10;48.10
13049;DHT22;6591;51.446;5.404;2023-05-27T11:30:12;30.20;48.10
13049;DHT22;6591;51.446;5.404;2023-05-27T11:32:41;30.10;49.20
13049;DHT22;6591;51.446;5.404;2023-05-27T11:35:15;30.20;49.50
13049;DHT22;6591;51.446;5.404;2023-05-27T11:37:49;30.30;49.20
13049;DHT22;6591;51.446;5.404;2023-05-27T11:40:18;30.40;48.10
13049;DHT22;6591;51.446;5.404;2023-05-27T11:42:45;30.60;49.30
13049;DHT22;6591;51.446;5.404;2023-05-27T11:45:20;30.80;48.60
13049;DHT22;6591;51.446;5.404;2023-05-27T11:47:48;31.10;47.20
13049;DHT22;6591;51.446;5.404;2023-05-27T11:50:21;31.30;48.60
13049;DHT22;6591;51.446;5.404;2023-05-27T11:55:19;31.80;47.60
13049;DHT22;6591;51.446;5.404;2023-05-27T11:57:46;32.10;47.30
13049;DHT22;6591;51.446;5.404;2023-05-27T12:00:14;32.20;45.80
13049;DHT22;6591;51.446;5.404;2023-05-27T12:02:41;32.10;45.50
13049;DHT22;6591;51.446;5.404;2023-05-27T12:05:09;32.00;45.40
13049;DHT22;6591;51.446;5.404;2023-05-27T12:07:56;31.80;45.60
13049;DHT22;6591;51.446;5.404;2023-05-27T12:10:23;31.70;45.40
13049;DHT22;6591;51.446;5.404;2023-05-27T12:12:50;31.60;44.10
13049;DHT22;6591;51.446;5.404;2023-05-27T12:15:18;31.50;45.00
13049;DHT22;6591;51.446;5.404;2023-05-27T12:17:44;30.40;45.10
13049;DHT22;6591;51.446;5.404;2023-05-27T12:20:12;31.40;45.30
13049;DHT22;6591;51.446;5.404;2023-05-27T12:22:39;31.50;45.80
13049;DHT22;6591;51.446;5.404;2023-05-27T12:25:06;31.80;45.60
13049;DHT22;6591;51.446;5.404;2023-05-27T12:27:34;32.10;44.80
13049;DHT22;6591;51.446;5.404;2023-05-27T12:30:00;32.30;44.50
13049;DHT22;6591;51.446;5.404;2023-05-27T12:32:29;32.40;44.30
13049;DHT22;6591;51.446;5.404;2023-05-27T12:34:56;32.60;43.70
13049;DHT22;6591;51.446;5.404;2023-05-27T12:37:23;32.80;43.90
13049;DHT22;6591;51.446;5.404;2023-05-27T12:39:51;33.10;43.40
13049;DHT22;6591;51.446;5.404;2023-05-27T12:42:18;33.40;42.70
13049;DHT22;6591;51.446;5.404;2023-05-27T12:44:45;33.80;42.10
13049;DHT22;6591;51.446;5.404;2023-05-27T12:47:13;33.90;40.60
13049;DHT22;6591;51.446;5.404;2023-05-27T12:49:40;33.80;40.10
13049;DHT22;6591;51.446;5.404;2023-05-27T12:52:08;33.40;40.20
13049;DHT22;6591;51.446;5.404;2023-05-27T12:54:35;33.20;41.10
13049;DHT22;6591;51.446;5.404;2023-05-27T12:57:03;33.00;40.90
13049;DHT22;6591;51.446;5.404;2023-05-27T12:59:32;32.70;41.00
13049;DHT22;6591;51.446;5.404;2023-05-27T13:02:00;32.50;41.30
13049;DHT22;6591;51.446;5.404;2023-05-27T13:04:27;32.20;41.40
13049;DHT22;6591;51.446;5.404;2023-05-27T13:06:54;32.00;42.30
13049;DHT22;6591;51.446;5.404;2023-05-27T13:09:21;32.10;43.00
13049;DHT22;6591;51.446;5.404;2023-05-27T13:11:48;32.30;43.50
13049;DHT22;6591;51.446;5.404;2023-05-27T13:14:15;34.40;44.10
13049;DHT22;6591;51.446;5.404;2023-05-27T13:16:43;32.80;42.40
13049;DHT22;6591;51.446;5.404;2023-05-27T13:19:10;33.00;42.90
13049;DHT22;6591;51.446;5.404;2023-05-27T13:21:37;33.20;42.10
13049;DHT22;6591;51.446;5.404;2023-05-27T13:24:05;33.30;42.20
13049;DHT22;6591;51.446;5.404;2023-05-27T13:26:32;33.40;42.30
13049;DHT22;6591;51.446;5.404;2023-05-27T13:28:59;33.60;42.50
13049;DHT22;6591;51.446;5.404;2023-05-27T13:31:26;33.80;42.40
13049;DHT22;6591;51.446;5.404;2023-05-27T13:33:54;34.00;42.10
13049;DHT22;6591;51.446;5.404;2023-05-27T13:36:21;34.10;39.60
13049;DHT22;6591;51.446;5.404;2023-05-27T13:38:49;34.00;38.90
13049;DHT22;6591;51.446;5.404;2023-05-27T13:41:16;33.90;39.90
13049;DHT22;6591;51.446;5.404;2023-05-27T13:43:43;33.80;39.50
13049;DHT22;6591;51.446;5.404;2023-05-27T13:46:10;33.70;40.20
13049;DHT22;6591;51.446;5.404;2023-05-27T13:48:37;33.70;40.40
13049;DHT22;6591;51.446;5.404;2023-05-27T13:51:04;33.70;39.90
13049;DHT22;6591;51.446;5.404;2023-05-27T13:53:33;33.80;40.10
13049;DHT22;6591;51.446;5.404;2023-05-27T13:56:00;33.90;40.30
13049;DHT22;6591;51.446;5.404;2023-05-27T13:58:27;34.10;40.40
13049;DHT22;6591;51.446;5.404;2023-05-27T14:00:55;34.40;40.70
13049;DHT22;6591;51.446;5.404;2023-05-27T14:03:22;34.50;38.80
13049;DHT22;6591;51.446;5.404;2023-05-27T14:05:49;34.60;38.90
13049;DHT22;6591;51.446;5.404;2023-05-27T14:08:17;34.60;38.50
13049;DHT22;6591;51.446;5.404;2023-05-27T14:10:44;34.40;37.50
13049;DHT22;6591;51.446;5.404;2023-05-27T14:13:12;34.20;37.70
13049;DHT22;6591;51.446;5.404;2023-05-27T14:15:39;34.10;38.30
13049;DHT22;6591;51.446;5.404;2023-05-27T14:18:06;34.00;38.50
13049;DHT22;6591;51.446;5.404;2023-05-27T14:20:34;33.90;38.60
13049;DHT22;6591;51.446;5.404;2023-05-27T14:23:01;33.80;38.20
13049;DHT22;6591;51.446;5.404;2023-05-27T14:25:31;34.00;39.30
13049;DHT22;6591;51.446;5.404;2023-05-27T14:27:58;33.80;39.30
13049;DHT22;6591;51.446;5.404;2023-05-27T14:30:30;33.90;39.40
13049;DHT22;6591;51.446;5.404;2023-05-27T14:32:59;34.10;39.50
13049;DHT22;6591;51.446;5.404;2023-05-27T14:35:28;34.20;39.50
13049;DHT22;6591;51.446;5.404;2023-05-27T14:37:56;34.40;39.40
13049;DHT22;6591;51.446;5.404;2023-05-27T14:40:23;34.60;39.40
13049;DHT22;6591;51.446;5.404;2023-05-27T14:42:50;34.90;38.60
13049;DHT22;6591;51.446;5.404;2023-05-27T14:45:16;35.00;38.20
13049;DHT22;6591;51.446;5.404;2023-05-27T14:47:49;35.10;38.10
13049;DHT22;6591;51.446;5.404;2023-05-27T14:50:22;35.20;37.80
13049;DHT22;6591;51.446;5.404;2023-05-27T14:52:50;35.30;37.60
13049;DHT22;6591;51.446;5.404;2023-05-27T14:55:18;35.30;37.40
13049;DHT22;6591;51.446;5.404;2023-05-27T14:57:46;35.20;37.40
13049;DHT22;6591;51.446;5.404;2023-05-27T15:00:14;35.20;37.80
13049;DHT22;6591;51.446;5.404;2023-05-27T15:02:41;35.20;37.60
13049;DHT22;6591;51.446;5.404;2023-05-27T15:05:09;35.20;37.30
13049;DHT22;6591;51.446;5.404;2023-05-27T15:07:37;35.10;36.90
13049;DHT22;6591;51.446;5.404;2023-05-27T15:10:07;35.10;36.90
13049;DHT22;6591;51.446;5.404;2023-05-27T15:12:46;35.00;37.00
13049;DHT22;6591;51.446;5.404;2023-05-27T15:15:18;34.90;36.70
13049;DHT22;6591;51.446;5.404;2023-05-27T15:17:49;34.90;37.30
13049;DHT22;6591;51.446;5.404;2023-05-27T15:20:17;34.80;37.00
13049;DHT22;6591;51.446;5.404;2023-05-27T15:22:45;34.80;36.90
13049;DHT22;6591;51.446;5.404;2023-05-27T15:25:13;34.70;36.50
13049;DHT22;6591;51.446;5.404;2023-05-27T15:27:40;34.60;36.80
13049;DHT22;6591;51.446;5.404;2023-05-27T15:30:08;34.50;36.60
13049;DHT22;6591;51.446;5.404;2023-05-27T15:32:35;34.50;36.90
13049;DHT22;6591;51.446;5.404;2023-05-27T15:35:03;34.40;36.50
13049;DHT22;6591;51.446;5.404;2023-05-27T15:37:32;34.30;36.40
13049;DHT22;6591;51.446;5.404;2023-05-27T15:39:59;34.20;36.10
13049;DHT22;6591;51.446;5.404;2023-05-27T15:42:26;34.20;36.60
13049;DHT22;6591;51.446;5.404;2023-05-27T15:44:53;34.10;36.30
13049;DHT22;6591;51.446;5.404;2023-05-27T15:47:20;34.00;36.50
13049;DHT22;6591;51.446;5.404;2023-05-27T15:49:48;34.00;36.90
13049;DHT22;6591;51.446;5.404;2023-05-27T15:52:15;34.10;37.10
13049;DHT22;6591;51.446;5.404;2023-05-27T15:54:43;34.20;37.50
13049;DHT22;6591;51.446;5.404;2023-05-27T15:57:10;34.40;36.60
13049;DHT22;6591;51.446;5.404;2023-05-27T15:59:38;34.60;36.50
13049;DHT22;6591;51.446;5.404;2023-05-27T16:02:06;34.80;36.80
13049;DHT22;6591;51.446;5.404;2023-05-27T16:04:34;34.90;36.70
13049;DHT22;6591;51.446;5.404;2023-05-27T16:07:04;35.10;36.30
13049;DHT22;6591;51.446;5.404;2023-05-27T16:09:32;35.30;35.90
13049;DHT22;6591;51.446;5.404;2023-05-27T16:12:00;35.40;36.20
13049;DHT22;6591;51.446;5.404;2023-05-27T16:14:28;35.50;35.90